createdAt,value
2018-09-26T00:01:31.610Z,7.10
2018-09-26T00:04:04.563Z,7.00
2018-09-26T00:06:33.420Z,7.00
2018-09-26T00:09:02.184Z,7.00
2018-09-26T00:11:31.067Z,7.00
2018-09-26T00:13:59.708Z,6.90
2018-09-26T00:16:28.401Z,6.80
2018-09-26T00:18:57.176Z,6.80
2018-09-26T00:21:25.978Z,6.80
2018-09-26T00:23:54.747Z,6.70
2018-09-26T00:26:23.640Z,6.60
2018-09-26T00:28:52.341Z,6.70
2018-09-26T00:31:21.041Z,6.70
2018-09-26T00:33:49.817Z,6.70
2018-09-26T00:36:18.688Z,6.60
2018-09-26T00:38:47.561Z,6.60
2018-09-26T00:41:16.381Z,6.60
2018-09-26T00:43:45.132Z,6.60
2018-09-26T00:46:13.903Z,6.60
2018-09-26T00:48:42.718Z,6.60
2018-09-26T00:51:11.553Z,6.50
2018-09-26T00:53:40.427Z,6.50
2018-09-26T00:56:09.026Z,6.50
2018-09-26T00:58:37.859Z,6.60
2018-09-26T01:01:06.548Z,6.60
2018-09-26T01:03:35.516Z,6.50
2018-09-26T01:06:04.405Z,6.50
2018-09-26T01:08:33.399Z,6.50
2018-09-26T01:11:02.196Z,6.50
2018-09-26T01:13:30.894Z,6.50
2018-09-26T01:15:59.797Z,6.50
2018-09-26T01:18:28.500Z,6.40
2018-09-26T01:20:57.234Z,6.40
2018-09-26T01:23:25.871Z,6.50
2018-09-26T01:25:54.585Z,6.50
2018-09-26T01:28:23.498Z,6.50
2018-09-26T01:30:52.216Z,6.40
2018-09-26T01:33:21.067Z,6.40
2018-09-26T01:35:49.826Z,6.40
2018-09-26T01:38:18.621Z,6.40
2018-09-26T01:40:47.495Z,6.30
2018-09-26T01:43:16.404Z,6.40
2018-09-26T01:45:45.208Z,6.30
2018-09-26T01:48:15.749Z,6.30
2018-09-26T01:50:44.916Z,6.30
2018-09-26T01:53:13.891Z,6.30
2018-09-26T01:55:42.562Z,6.30
2018-09-26T01:58:11.423Z,6.30
2018-09-26T02:00:40.396Z,6.20
2018-09-26T02:03:09.251Z,6.20
2018-09-26T02:05:38.075Z,6.10
2018-09-26T02:08:06.742Z,6.10
2018-09-26T02:10:35.637Z,6.10
2018-09-26T02:13:04.377Z,6.10
2018-09-26T02:15:33.377Z,6.10
2018-09-26T02:18:02.062Z,6.20
2018-09-26T02:20:30.777Z,6.20
2018-09-26T02:22:59.533Z,6.20
2018-09-26T02:25:28.282Z,6.20
2018-09-26T02:27:57.061Z,6.20
2018-09-26T02:30:25.904Z,6.20
2018-09-26T02:32:54.755Z,6.20
2018-09-26T02:35:23.867Z,6.20
2018-09-26T02:37:52.662Z,6.30
2018-09-26T02:40:21.602Z,6.30
2018-09-26T02:42:50.403Z,6.40
2018-09-26T02:45:19.108Z,6.40
2018-09-26T02:47:48.202Z,6.50
2018-09-26T02:50:17.138Z,6.50
2018-09-26T02:52:45.841Z,6.50
2018-09-26T02:55:14.921Z,6.50
2018-09-26T02:57:43.983Z,6.50
2018-09-26T03:00:12.978Z,6.60
2018-09-26T03:02:41.753Z,6.60
2018-09-26T03:05:10.509Z,6.60
2018-09-26T03:07:39.595Z,6.70
2018-09-26T03:10:08.317Z,6.60
2018-09-26T03:12:37.122Z,6.50
2018-09-26T03:15:06.215Z,6.50
2018-09-26T03:17:35.015Z,6.40
2018-09-26T03:20:04.123Z,6.40
2018-09-26T03:22:32.793Z,6.30
2018-09-26T03:25:01.509Z,6.30
2018-09-26T03:27:30.309Z,6.30
2018-09-26T03:29:59.079Z,6.10
2018-09-26T03:32:27.914Z,6.00
2018-09-26T03:34:56.748Z,6.00
2018-09-26T03:37:25.544Z,6.00
2018-09-26T03:39:54.498Z,5.90
2018-09-26T03:42:23.372Z,6.00
2018-09-26T03:44:52.338Z,6.00
2018-09-26T03:47:21.241Z,5.90
2018-09-26T03:49:50.178Z,6.00
2018-09-26T03:52:18.954Z,6.00
2018-09-26T03:54:48.048Z,6.00
2018-09-26T03:57:16.763Z,5.90
2018-09-26T03:59:45.724Z,5.80
2018-09-26T04:02:14.454Z,5.80
2018-09-26T04:04:43.468Z,5.80
2018-09-26T04:07:12.221Z,5.90
2018-09-26T04:09:40.959Z,6.00
2018-09-26T04:12:09.909Z,6.00
2018-09-26T04:14:38.568Z,6.00
2018-09-26T04:17:07.408Z,6.00
2018-09-26T04:19:36.119Z,5.90
2018-09-26T04:22:05.094Z,6.00
2018-09-26T04:24:33.888Z,6.00
2018-09-26T04:27:02.808Z,6.00
2018-09-26T04:29:32.818Z,6.10
2018-09-26T04:32:01.604Z,6.10
2018-09-26T04:34:30.492Z,6.10
2018-09-26T04:36:59.431Z,6.10
2018-09-26T04:39:28.218Z,6.20
2018-09-26T04:41:57.115Z,6.20
2018-09-26T04:44:25.963Z,6.20
2018-09-26T04:46:54.661Z,6.10
2018-09-26T04:49:23.559Z,6.10
2018-09-26T04:51:52.414Z,6.10
2018-09-26T04:54:21.229Z,6.10
2018-09-26T04:56:50.011Z,6.20
2018-09-26T04:59:18.757Z,6.20
2018-09-26T05:01:47.433Z,6.30
2018-09-26T05:04:16.489Z,6.20
2018-09-26T05:06:45.245Z,6.20
2018-09-26T05:09:14.000Z,6.20
2018-09-26T05:11:42.857Z,6.30
2018-09-26T05:14:13.934Z,6.30
2018-09-26T05:16:44.035Z,6.30
2018-09-26T05:19:13.956Z,6.30
2018-09-26T05:21:44.501Z,6.40
2018-09-26T05:24:14.142Z,6.30
2018-09-26T05:26:44.291Z,6.40
2018-09-26T05:29:13.535Z,6.30
2018-09-26T05:31:42.405Z,6.30
2018-09-26T05:34:11.150Z,6.30
2018-09-26T05:36:39.989Z,6.30
2018-09-26T05:39:11.060Z,6.40
2018-09-26T05:41:40.216Z,6.40
2018-09-26T05:44:09.834Z,6.40
2018-09-26T05:46:38.556Z,6.50
2018-09-26T05:49:07.040Z,6.50
2018-09-26T05:51:36.076Z,6.60
2018-09-26T05:54:04.971Z,6.60
2018-09-26T05:56:33.687Z,6.70
2018-09-26T05:59:02.335Z,6.90
2018-09-26T06:01:31.176Z,6.90
2018-09-26T06:03:59.998Z,7.00
2018-09-26T06:06:28.709Z,7.10
2018-09-26T06:08:57.761Z,7.10
2018-09-26T06:11:26.660Z,7.20
2018-09-26T06:13:55.817Z,7.20
2018-09-26T06:16:24.451Z,7.30
2018-09-26T06:18:53.317Z,7.40
2018-09-26T06:21:23.212Z,7.40
2018-09-26T06:23:51.974Z,7.50
2018-09-26T06:26:21.628Z,7.50
2018-09-26T06:28:50.277Z,7.60
2018-09-26T06:31:19.418Z,7.70
2018-09-26T06:33:48.334Z,7.80
2018-09-26T06:36:17.182Z,7.90
2018-09-26T06:38:47.005Z,7.90
2018-09-26T06:41:15.780Z,8.00
2018-09-26T06:43:44.779Z,8.10
2018-09-26T06:46:14.023Z,8.20
2018-09-26T06:48:42.876Z,8.30
2018-09-26T06:51:12.204Z,8.40
2018-09-26T06:53:41.659Z,8.70
2018-09-26T06:56:10.331Z,8.60
2018-09-26T06:58:39.867Z,8.90
2018-09-26T07:01:09.497Z,9.00
2018-09-26T07:03:38.913Z,9.30
2018-09-26T07:06:07.885Z,9.50
2018-09-26T07:08:37.028Z,9.70
2018-09-26T07:11:05.747Z,10.10
2018-09-26T07:13:34.910Z,10.60
2018-09-26T07:16:03.763Z,10.40
2018-09-26T07:18:32.829Z,10.80
2018-09-26T07:21:01.945Z,11.20
2018-09-26T07:23:30.746Z,11.60
2018-09-26T07:25:59.242Z,12.00
2018-09-26T07:28:27.920Z,12.20
2018-09-26T07:30:56.392Z,12.10
2018-09-26T07:33:24.935Z,12.20
2018-09-26T07:35:53.431Z,12.40
2018-09-26T07:38:22.071Z,12.40
2018-09-26T07:40:50.726Z,13.20
2018-09-26T07:43:19.221Z,14.00
2018-09-26T07:45:47.774Z,13.70
2018-09-26T07:48:16.347Z,14.00
2018-09-26T07:50:44.796Z,13.80
2018-09-26T07:53:13.314Z,14.40
2018-09-26T07:55:41.851Z,14.70
2018-09-26T07:58:10.290Z,14.80
2018-09-26T08:00:38.769Z,14.40
2018-09-26T08:03:07.889Z,14.80
2018-09-26T08:05:36.547Z,14.80
2018-09-26T08:08:05.132Z,14.80
2018-09-26T08:10:33.864Z,15.70
2018-09-26T08:13:02.476Z,15.30
2018-09-26T08:15:31.419Z,15.70
2018-09-26T08:17:59.986Z,15.70
2018-09-26T08:20:28.519Z,15.70
2018-09-26T08:22:56.988Z,16.10
2018-09-26T08:25:25.906Z,15.70
2018-09-26T08:27:54.775Z,15.90
2018-09-26T08:30:23.413Z,16.60
2018-09-26T08:32:52.052Z,17.80
2018-09-26T08:37:59.960Z,17.90
2018-09-26T08:40:28.619Z,19.20
2018-09-26T08:42:57.350Z,19.20
2018-09-26T08:45:26.220Z,19.40
2018-09-26T08:47:54.774Z,19.00
2018-09-26T08:50:23.277Z,19.50
2018-09-26T08:52:52.256Z,19.60
2018-09-26T08:55:20.955Z,19.40
2018-09-26T08:57:49.888Z,20.40
2018-09-26T09:00:23.928Z,21.00
2018-09-26T09:02:53.479Z,20.70
2018-09-26T09:05:21.994Z,19.90
2018-09-26T09:07:50.655Z,20.20
2018-09-26T09:10:19.353Z,20.60
2018-09-26T09:12:48.301Z,20.30
2018-09-26T09:15:17.093Z,21.20
2018-09-26T09:17:45.910Z,21.30
2018-09-26T09:20:14.520Z,20.70
2018-09-26T09:22:43.400Z,20.80
2018-09-26T09:25:12.195Z,20.20
2018-09-26T09:27:41.156Z,20.90
2018-09-26T09:30:09.766Z,21.00
2018-09-26T09:32:38.274Z,20.00
2018-09-26T09:35:07.297Z,18.20
2018-09-26T09:37:35.782Z,17.80
2018-09-26T09:40:05.567Z,17.70
2018-09-26T09:42:34.321Z,17.30
2018-09-26T09:45:03.157Z,17.20
2018-09-26T09:47:31.594Z,17.10
2018-09-26T09:50:00.122Z,16.80
2018-09-26T09:52:28.601Z,16.60
2018-09-26T09:54:57.340Z,17.10
2018-09-26T09:57:26.169Z,17.20
2018-09-26T09:59:54.905Z,16.90
2018-09-26T10:02:24.077Z,17.20
2018-09-26T10:04:52.777Z,17.60
2018-09-26T10:07:21.578Z,17.50
2018-09-26T10:09:50.178Z,17.80
2018-09-26T10:12:18.720Z,17.90
2018-09-26T10:14:47.334Z,17.90
2018-09-26T10:17:16.034Z,17.70
2018-09-26T10:19:44.588Z,17.30
2018-09-26T10:22:13.620Z,16.90
2018-09-26T10:24:42.150Z,17.30
2018-09-26T10:27:10.630Z,17.50
2018-09-26T10:29:39.102Z,17.60
2018-09-26T10:32:07.612Z,17.40
2018-09-26T10:34:36.007Z,17.20
2018-09-26T10:37:04.387Z,16.90
2018-09-26T10:39:32.930Z,16.80
2018-09-26T10:42:01.448Z,16.90
2018-09-26T10:44:30.077Z,16.80
2018-09-26T10:46:58.633Z,16.60
2018-09-26T10:49:27.745Z,16.70
2018-09-26T10:51:56.396Z,16.80
2018-09-26T10:54:24.914Z,16.90
2018-09-26T10:56:53.489Z,16.90
2018-09-26T10:59:21.965Z,17.10
2018-09-26T11:01:50.634Z,16.90
2018-09-26T11:04:19.538Z,16.80
2018-09-26T11:06:49.017Z,16.70
2018-09-26T11:09:17.824Z,16.80
2018-09-26T11:11:46.379Z,16.70
2018-09-26T11:14:14.999Z,17.00
2018-09-26T11:16:43.989Z,17.00
2018-09-26T11:19:12.749Z,16.90
2018-09-26T11:21:41.625Z,17.10
2018-09-26T11:24:10.413Z,17.20
2018-09-26T11:26:39.375Z,17.00
2018-09-26T11:29:08.543Z,17.00
2018-09-26T11:31:37.338Z,17.00
2018-09-26T11:34:06.364Z,17.00
2018-09-26T11:36:35.449Z,17.10
2018-09-26T11:39:05.245Z,17.00
2018-09-26T11:41:33.969Z,16.90
2018-09-26T11:44:02.674Z,16.90
2018-09-26T11:46:31.178Z,17.10
2018-09-26T11:48:59.769Z,17.00
2018-09-26T11:51:28.458Z,17.20
2018-09-26T11:53:57.276Z,17.00
2018-09-26T11:56:25.943Z,17.10
2018-09-26T11:58:54.844Z,17.20
2018-09-26T12:01:23.884Z,17.10
2018-09-26T12:03:52.653Z,17.30
2018-09-26T12:06:21.419Z,17.10
2018-09-26T12:08:51.964Z,17.10
2018-09-26T12:11:20.920Z,17.20
2018-09-26T12:13:49.408Z,17.30
2018-09-26T12:16:18.331Z,17.40
2018-09-26T12:18:46.894Z,17.40
2018-09-26T12:21:15.582Z,17.20
2018-09-26T12:23:44.092Z,17.10
2018-09-26T12:26:13.941Z,17.40
2018-09-26T12:28:42.440Z,17.60
2018-09-26T12:31:10.941Z,17.60
2018-09-26T12:33:39.421Z,17.60
2018-09-26T12:36:08.076Z,17.60
2018-09-26T12:38:37.070Z,17.70
2018-09-26T12:41:05.618Z,17.70
2018-09-26T12:43:35.539Z,17.50
2018-09-26T12:46:04.150Z,17.50
2018-09-26T12:48:32.902Z,17.80
2018-09-26T12:51:01.448Z,18.00
2018-09-26T12:53:30.067Z,18.00
2018-09-26T12:55:59.020Z,18.10
2018-09-26T12:58:27.714Z,17.80
2018-09-26T13:00:56.192Z,17.70
2018-09-26T13:03:24.645Z,17.90
2018-09-26T13:05:53.585Z,17.90
2018-09-26T13:08:22.130Z,17.80
2018-09-26T13:10:50.605Z,18.00
2018-09-26T13:13:19.138Z,18.10
2018-09-26T13:15:47.605Z,18.10
2018-09-26T13:18:16.303Z,18.00
2018-09-26T13:20:45.113Z,18.20
2018-09-26T13:23:13.611Z,18.10
2018-09-26T13:25:42.164Z,18.10
2018-09-26T13:28:10.917Z,18.00
2018-09-26T13:30:39.828Z,18.20
2018-09-26T13:33:08.502Z,18.20
2018-09-26T13:35:36.979Z,18.10
2018-09-26T13:38:05.798Z,18.10
2018-09-26T13:40:35.811Z,18.30
2018-09-26T13:43:04.670Z,18.50
2018-09-26T13:45:33.252Z,18.30
2018-09-26T13:48:02.320Z,18.20
2018-09-26T13:50:31.191Z,18.40
2018-09-26T13:52:59.764Z,18.40
2018-09-26T13:55:28.364Z,18.20
2018-09-26T13:57:57.321Z,18.40
2018-09-26T14:00:25.999Z,18.50
2018-09-26T14:02:54.732Z,18.40
2018-09-26T14:05:23.364Z,18.40
2018-09-26T14:07:51.998Z,18.40
2018-09-26T14:10:20.653Z,18.30
2018-09-26T14:12:49.330Z,18.40
2018-09-26T14:15:17.895Z,18.40
2018-09-26T14:17:46.496Z,18.50
2018-09-26T14:20:31.892Z,18.60
2018-09-26T14:23:00.723Z,18.50
2018-09-26T14:25:29.390Z,18.40
2018-09-26T14:27:58.342Z,18.50
2018-09-26T14:30:27.061Z,18.40
2018-09-26T14:32:55.950Z,18.50
2018-09-26T14:35:25.106Z,18.50
2018-09-26T14:37:53.605Z,18.40
2018-09-26T14:40:22.555Z,18.50
2018-09-26T14:42:51.582Z,18.50
2018-09-26T14:45:20.328Z,18.50
2018-09-26T14:47:49.017Z,18.60
2018-09-26T14:50:17.634Z,18.50
2018-09-26T14:52:46.477Z,18.40
2018-09-26T14:55:15.097Z,18.50
2018-09-26T14:57:43.619Z,18.50
2018-09-26T15:00:12.265Z,18.50
2018-09-26T15:02:41.222Z,18.50
2018-09-26T15:05:09.852Z,18.50
2018-09-26T15:07:38.445Z,18.60
2018-09-26T15:10:07.990Z,18.60
2018-09-26T15:12:36.572Z,18.60
2018-09-26T15:15:05.195Z,18.60
2018-09-26T15:17:34.166Z,18.60
2018-09-26T15:20:03.069Z,18.50
2018-09-26T15:22:31.755Z,18.50
2018-09-26T15:25:00.598Z,18.50
2018-09-26T15:27:29.233Z,18.50
2018-09-26T15:29:57.903Z,18.50
2018-09-26T15:32:26.779Z,18.50
2018-09-26T15:34:55.613Z,18.50
2018-09-26T15:37:24.494Z,18.50
2018-09-26T15:39:53.179Z,18.50
2018-09-26T15:42:22.244Z,18.50
2018-09-26T15:44:50.961Z,18.50
2018-09-26T15:47:20.149Z,18.50
2018-09-26T15:49:48.944Z,18.50
2018-09-26T15:52:17.564Z,18.40
2018-09-26T15:54:46.084Z,18.40
2018-09-26T15:57:14.913Z,18.40
2018-09-26T15:59:43.566Z,18.30
2018-09-26T16:02:12.305Z,18.30
2018-09-26T16:04:41.869Z,18.20
2018-09-26T16:07:10.733Z,18.20
2018-09-26T16:09:39.549Z,18.20
2018-09-26T16:12:08.321Z,18.10
2018-09-26T16:14:36.999Z,18.10
2018-09-26T16:17:05.616Z,18.10
2018-09-26T16:19:34.477Z,18.00
2018-09-26T16:22:03.004Z,17.90
2018-09-26T16:24:31.606Z,17.90
2018-09-26T16:27:00.105Z,17.80
2018-09-26T16:29:29.930Z,17.80
2018-09-26T16:31:58.714Z,17.70
2018-09-26T16:34:28.278Z,17.60
2018-09-26T16:36:57.108Z,17.50
2018-09-26T16:39:25.870Z,17.40
2018-09-26T16:41:54.487Z,17.40
2018-09-26T16:44:23.409Z,17.30
2018-09-26T16:46:52.082Z,17.20
2018-09-26T16:49:20.905Z,17.10
2018-09-26T16:51:49.445Z,17.00
2018-09-26T16:54:18.171Z,16.90
2018-09-26T16:56:47.021Z,16.80
2018-09-26T16:59:15.795Z,16.60
2018-09-26T17:01:44.651Z,16.60
2018-09-26T17:04:13.288Z,16.40
2018-09-26T17:06:42.281Z,16.30
2018-09-26T17:09:11.076Z,16.20
2018-09-26T17:11:39.692Z,16.00
2018-09-26T17:14:08.594Z,15.90
2018-09-26T17:16:37.204Z,15.70
2018-09-26T17:19:06.297Z,15.50
2018-09-26T17:21:34.892Z,15.40
2018-09-26T17:24:03.660Z,15.30
2018-09-26T17:26:32.792Z,15.10
2018-09-26T17:29:01.721Z,15.00
2018-09-26T17:31:31.449Z,14.80
2018-09-26T17:34:00.931Z,14.70
2018-09-26T17:36:31.415Z,14.50
2018-09-26T17:39:01.686Z,14.40
2018-09-26T17:41:31.200Z,14.30
2018-09-26T17:43:59.988Z,14.20
2018-09-26T17:46:28.761Z,14.10
2018-09-26T17:48:57.659Z,14.00
2018-09-26T17:51:26.466Z,13.90
2018-09-26T17:53:55.229Z,13.80
2018-09-26T17:56:24.109Z,13.70
2018-09-26T17:58:52.860Z,13.60
2018-09-26T18:01:21.739Z,13.50
2018-09-26T18:03:50.433Z,13.40
2018-09-26T18:06:19.250Z,13.40
2018-09-26T18:08:47.888Z,13.40
2018-09-26T18:11:16.528Z,13.30
2018-09-26T18:13:45.073Z,13.20
2018-09-26T18:16:13.661Z,13.20
2018-09-26T18:18:42.360Z,13.20
2018-09-26T18:21:11.061Z,13.10
2018-09-26T18:23:39.816Z,13.00
2018-09-26T18:26:08.490Z,13.00
2018-09-26T18:28:37.186Z,12.90
2018-09-26T18:31:05.912Z,12.80
2018-09-26T18:33:34.623Z,12.70
2018-09-26T18:36:03.372Z,12.70
2018-09-26T18:38:31.966Z,12.60
2018-09-26T18:41:00.624Z,12.60
2018-09-26T18:43:29.260Z,12.50
2018-09-26T18:45:57.842Z,12.40
2018-09-26T18:48:26.503Z,12.30
2018-09-26T18:50:55.112Z,12.20
2018-09-26T18:53:23.698Z,12.20
2018-09-26T18:55:52.206Z,12.10
2018-09-26T18:58:20.736Z,12.10
2018-09-26T19:00:49.395Z,12.00
2018-09-26T19:03:17.989Z,12.00
2018-09-26T19:05:46.740Z,11.90
2018-09-26T19:08:15.353Z,11.90
2018-09-26T19:10:43.956Z,11.80
2018-09-26T19:13:12.727Z,11.80
2018-09-26T19:15:41.699Z,11.70
2018-09-26T19:18:10.319Z,11.70
2018-09-26T19:20:39.071Z,11.60
2018-09-26T19:23:07.504Z,11.50
2018-09-26T19:25:36.024Z,11.50
2018-09-26T19:28:04.666Z,11.40
2018-09-26T19:30:33.196Z,11.40
2018-09-26T19:33:01.797Z,11.30
2018-09-26T19:35:30.289Z,11.30
2018-09-26T19:37:58.740Z,11.20
2018-09-26T19:40:27.295Z,11.10
2018-09-26T19:42:55.856Z,11.20
2018-09-26T19:45:24.510Z,11.10
2018-09-26T19:47:53.037Z,11.10
2018-09-26T19:50:21.544Z,11.00
2018-09-26T19:52:50.111Z,11.00
2018-09-26T19:55:18.596Z,11.00
2018-09-26T19:57:47.089Z,10.90
2018-09-26T20:00:15.557Z,11.00
2018-09-26T20:02:44.020Z,10.90
2018-09-26T20:05:12.568Z,10.80
2018-09-26T20:07:41.008Z,10.80
2018-09-26T20:10:10.520Z,10.80
2018-09-26T20:12:38.976Z,10.70
2018-09-26T20:15:07.728Z,10.70
2018-09-26T20:17:36.255Z,10.70
2018-09-26T20:20:04.868Z,10.70
2018-09-26T20:22:33.296Z,10.60
2018-09-26T20:25:01.895Z,10.60
2018-09-26T20:27:30.386Z,10.50
2018-09-26T20:29:58.952Z,10.40
2018-09-26T20:32:27.481Z,10.40
2018-09-26T20:34:56.069Z,10.40
2018-09-26T20:37:24.549Z,10.40
2018-09-26T20:39:53.123Z,10.30
2018-09-26T20:42:21.706Z,10.30
2018-09-26T20:44:50.284Z,10.30
2018-09-26T20:47:18.869Z,10.30
2018-09-26T20:49:47.430Z,10.30
2018-09-26T20:52:15.878Z,10.20
2018-09-26T20:54:44.415Z,10.20
2018-09-26T20:57:12.921Z,10.20
2018-09-26T20:59:41.532Z,10.10
2018-09-26T21:02:10.083Z,10.10
2018-09-26T21:04:38.717Z,10.10
2018-09-26T21:07:07.313Z,10.10
2018-09-26T21:09:35.897Z,10.10
2018-09-26T21:12:04.405Z,10.10
2018-09-26T21:14:32.992Z,10.10
2018-09-26T21:17:01.495Z,10.00
2018-09-26T21:19:30.075Z,10.00
2018-09-26T21:21:58.606Z,10.00
2018-09-26T21:24:27.173Z,10.00
2018-09-26T21:26:55.717Z,9.80
2018-09-26T21:29:24.273Z,9.90
2018-09-26T21:31:52.748Z,9.80
2018-09-26T21:34:21.263Z,9.80
2018-09-26T21:36:49.876Z,9.70
2018-09-26T21:39:18.475Z,9.70
2018-09-26T21:41:47.032Z,9.70
2018-09-26T21:44:15.537Z,9.70
2018-09-26T21:46:44.079Z,9.70
2018-09-26T21:49:12.762Z,9.60
2018-09-26T21:51:41.258Z,9.60
2018-09-26T21:54:09.846Z,9.60
2018-09-26T21:56:38.309Z,9.60
2018-09-26T21:59:07.135Z,9.60
2018-09-26T22:01:35.596Z,9.70
2018-09-26T22:04:04.169Z,9.70
2018-09-26T22:06:32.696Z,9.70
2018-09-26T22:09:01.202Z,9.70
2018-09-26T22:11:29.858Z,9.60
2018-09-26T22:13:58.420Z,9.50
2018-09-26T22:16:26.959Z,9.40
2018-09-26T22:18:55.555Z,9.40
2018-09-26T22:21:24.097Z,9.40
2018-09-26T22:23:52.484Z,9.40
2018-09-26T22:26:21.909Z,9.50
2018-09-26T22:28:50.483Z,9.50
2018-09-26T22:31:19.144Z,9.50
2018-09-26T22:33:47.588Z,9.50
2018-09-26T22:36:16.243Z,9.60
2018-09-26T22:38:44.885Z,9.60
2018-09-26T22:41:13.491Z,9.60
2018-09-26T22:43:42.093Z,9.60
2018-09-26T22:46:10.766Z,9.50
2018-09-26T22:48:39.207Z,9.40
2018-09-26T22:51:07.708Z,9.40
2018-09-26T22:53:36.265Z,9.40
2018-09-26T22:56:04.927Z,9.30
2018-09-26T22:58:33.544Z,9.20
2018-09-26T23:01:02.176Z,9.20
2018-09-26T23:03:30.752Z,9.20
2018-09-26T23:05:59.368Z,9.20
2018-09-26T23:08:27.947Z,9.10
2018-09-26T23:10:56.504Z,9.10
2018-09-26T23:13:25.034Z,9.10
2018-09-26T23:15:53.599Z,9.10
2018-09-26T23:18:22.184Z,9.10
2018-09-26T23:20:50.726Z,9.00
2018-09-26T23:23:19.476Z,8.90
2018-09-26T23:25:48.051Z,8.90
2018-09-26T23:28:16.652Z,9.00
2018-09-26T23:30:45.402Z,9.00
2018-09-26T23:33:13.976Z,9.00
2018-09-26T23:35:42.392Z,9.10
2018-09-26T23:38:10.966Z,9.10
2018-09-26T23:40:39.552Z,9.00
2018-09-26T23:43:08.034Z,8.90
2018-09-26T23:45:36.612Z,8.90
2018-09-26T23:48:05.329Z,8.90
2018-09-26T23:50:33.988Z,8.90
2018-09-26T23:53:02.786Z,8.80
2018-09-26T23:55:31.382Z,8.90
2018-09-26T23:58:00.036Z,8.90
